createdAt,value
2023-05-21T00:01:08.353Z,13.70
2023-05-21T00:03:36.229Z,13.67
2023-05-21T00:06:03.946Z,13.66
2023-05-21T00:08:31.316Z,13.56
2023-05-21T00:10:58.117Z,13.50
2023-05-21T00:13:24.854Z,13.45
2023-05-21T00:15:51.852Z,13.42
2023-05-21T00:18:18.632Z,13.37
2023-05-21T00:20:45.857Z,13.28
2023-05-21T00:23:12.900Z,13.24
2023-05-21T00:25:39.602Z,13.16
2023-05-21T00:28:06.371Z,13.14
2023-05-21T00:30:33.240Z,13.12
2023-05-21T00:33:02.673Z,13.08
2023-05-21T00:35:29.923Z,13.06
2023-05-21T00:37:57.420Z,13.01
2023-05-21T00:40:24.342Z,13.00
2023-05-21T00:42:50.967Z,12.95
2023-05-21T00:45:17.703Z,12.88
2023-05-21T00:47:45.943Z,12.88
2023-05-21T00:50:14.953Z,12.88
2023-05-21T00:52:43.467Z,12.87
2023-05-21T00:55:11.213Z,12.88
2023-05-21T00:57:38.638Z,12.89
2023-05-21T01:00:10.181Z,12.89
2023-05-21T01:02:38.334Z,12.88
2023-05-21T01:05:06.732Z,12.87
2023-05-21T01:07:39.121Z,12.90
2023-05-21T01:10:07.869Z,12.90
2023-05-21T01:12:38.098Z,12.93
2023-05-21T01:15:05.886Z,12.93
2023-05-21T01:17:34.291Z,12.90
2023-05-21T01:20:02.000Z,12.88
2023-05-21T01:22:33.840Z,12.90
2023-05-21T01:25:02.787Z,12.94
2023-05-21T01:27:29.954Z,12.95
2023-05-21T01:29:58.008Z,12.96
2023-05-21T01:32:35.269Z,12.99
2023-05-21T01:35:08.520Z,12.98
2023-05-21T01:37:43.296Z,12.97
2023-05-21T01:40:28.697Z,13.00
2023-05-21T01:42:55.960Z,12.99
2023-05-21T01:45:25.714Z,12.97
2023-05-21T01:47:55.956Z,12.99
2023-05-21T01:50:25.190Z,12.93
2023-05-21T01:52:53.641Z,12.98
2023-05-21T01:55:24.920Z,12.91
2023-05-21T01:57:55.812Z,13.01
2023-05-21T02:00:24.913Z,13.05
2023-05-21T02:02:52.157Z,13.10
2023-05-21T02:05:22.578Z,13.08
2023-05-21T02:07:51.988Z,13.11
2023-05-21T02:10:22.791Z,13.08
2023-05-21T02:12:49.584Z,13.08
2023-05-21T02:15:18.121Z,13.11
2023-05-21T02:17:46.672Z,13.13
2023-05-21T02:20:13.955Z,13.07
2023-05-21T02:22:42.025Z,13.11
2023-05-21T02:25:10.389Z,13.09
2023-05-21T02:27:38.366Z,13.13
2023-05-21T02:30:07.936Z,13.12
2023-05-21T02:32:35.262Z,13.09
2023-05-21T02:35:04.207Z,13.05
2023-05-21T02:37:35.185Z,13.09
2023-05-21T02:40:04.369Z,13.02
2023-05-21T02:42:31.045Z,13.05
2023-05-21T02:44:58.024Z,13.06
2023-05-21T02:47:25.547Z,13.03
2023-05-21T02:49:53.000Z,13.01
2023-05-21T02:52:22.627Z,13.06
2023-05-21T02:54:49.551Z,13.03
2023-05-21T02:57:16.156Z,13.08
2023-05-21T02:59:42.755Z,13.05
2023-05-21T03:02:09.741Z,12.95
2023-05-21T03:04:39.357Z,13.04
2023-05-21T03:07:06.291Z,13.03
2023-05-21T03:09:33.210Z,13.00
2023-05-21T03:11:59.834Z,13.06
2023-05-21T03:14:26.498Z,13.08
2023-05-21T03:16:53.543Z,13.09
2023-05-21T03:19:21.013Z,13.07
2023-05-21T03:21:49.218Z,13.02
2023-05-21T03:24:16.105Z,13.06
2023-05-21T03:26:42.733Z,13.07
2023-05-21T03:29:09.595Z,13.07
2023-05-21T03:31:36.702Z,13.10
2023-05-21T03:34:03.331Z,13.13
2023-05-21T03:36:29.977Z,13.20
2023-05-21T03:38:56.829Z,13.19
2023-05-21T03:41:23.534Z,13.23
2023-05-21T03:43:50.221Z,13.24
2023-05-21T03:46:16.967Z,13.27
2023-05-21T03:48:43.576Z,13.28
2023-05-21T03:51:10.233Z,13.32
2023-05-21T03:53:37.008Z,13.36
2023-05-21T03:56:03.761Z,13.32
2023-05-21T03:58:30.746Z,13.39
2023-05-21T04:00:57.802Z,13.44
2023-05-21T04:03:24.554Z,13.46
2023-05-21T04:05:51.532Z,13.52
2023-05-21T04:08:18.388Z,13.58
2023-05-21T04:10:45.122Z,13.59
2023-05-21T04:13:11.741Z,13.59
2023-05-21T04:15:39.179Z,13.59
2023-05-21T04:18:07.349Z,13.53
2023-05-21T04:20:34.068Z,13.67
2023-05-21T04:23:01.314Z,13.70
2023-05-21T04:25:27.930Z,13.74
2023-05-21T04:27:54.832Z,13.77
2023-05-21T04:30:24.589Z,13.83
2023-05-21T04:32:52.819Z,13.90
2023-05-21T04:35:19.649Z,13.98
2023-05-21T04:37:46.480Z,14.11
2023-05-21T04:40:18.315Z,14.18
2023-05-21T04:42:46.928Z,14.32
2023-05-21T04:45:13.892Z,14.40
2023-05-21T04:47:40.605Z,14.47
2023-05-21T04:50:07.936Z,14.52
2023-05-21T04:52:35.131Z,14.60
2023-05-21T04:55:01.805Z,14.66
2023-05-21T04:57:29.539Z,14.72
2023-05-21T04:59:57.938Z,14.79
2023-05-21T05:02:24.702Z,14.82
2023-05-21T05:04:51.375Z,14.84
2023-05-21T05:07:18.206Z,14.85
2023-05-21T05:09:44.847Z,14.91
2023-05-21T05:12:11.437Z,14.98
2023-05-21T05:14:38.675Z,15.04
2023-05-21T05:17:05.721Z,15.10
2023-05-21T05:19:32.551Z,15.14
2023-05-21T05:21:59.432Z,15.21
2023-05-21T05:24:26.060Z,15.30
2023-05-21T05:26:52.718Z,15.38
2023-05-21T05:29:19.338Z,15.44
2023-05-21T05:31:45.994Z,15.61
2023-05-21T05:34:12.601Z,15.72
2023-05-21T05:36:39.484Z,15.81
2023-05-21T05:39:06.285Z,15.91
2023-05-21T05:41:32.889Z,15.96
2023-05-21T05:43:59.517Z,16.00
2023-05-21T05:46:26.224Z,15.97
2023-05-21T05:48:52.967Z,16.08
2023-05-21T05:51:20.068Z,16.16
2023-05-21T05:53:46.706Z,16.27
2023-05-21T05:56:13.433Z,16.32
2023-05-21T05:58:40.163Z,16.39
2023-05-21T06:01:06.809Z,16.50
2023-05-21T06:03:33.587Z,16.63
2023-05-21T06:06:00.874Z,16.77
2023-05-21T06:08:27.596Z,16.89
2023-05-21T06:10:54.247Z,17.06
2023-05-21T06:13:21.202Z,17.21
2023-05-21T06:15:47.938Z,17.39
2023-05-21T06:18:14.646Z,17.56
2023-05-21T06:20:41.424Z,17.79
2023-05-21T06:23:08.997Z,18.03
2023-05-21T06:25:35.958Z,18.20
2023-05-21T06:28:03.103Z,18.34
2023-05-21T06:30:29.762Z,18.53
2023-05-21T06:32:57.358Z,18.71
2023-05-21T06:35:24.538Z,18.93
2023-05-21T06:37:51.133Z,19.18
2023-05-21T06:40:17.814Z,19.40
2023-05-21T06:42:44.573Z,19.65
2023-05-21T06:45:11.845Z,19.90
2023-05-21T06:47:38.589Z,20.12
2023-05-21T06:50:05.539Z,20.33
2023-05-21T06:52:32.344Z,20.57
2023-05-21T06:54:59.361Z,20.80
2023-05-21T06:57:26.325Z,20.98
2023-05-21T06:59:52.978Z,21.18
2023-05-21T07:02:19.668Z,21.41
2023-05-21T07:04:46.396Z,21.51
2023-05-21T07:07:13.022Z,21.70
2023-05-21T07:09:39.678Z,21.80
2023-05-21T07:12:06.984Z,22.05
2023-05-21T07:14:33.629Z,22.27
2023-05-21T07:17:00.356Z,22.48
2023-05-21T07:19:27.312Z,22.65
2023-05-21T07:21:54.042Z,22.78
2023-05-21T07:24:21.199Z,22.93
2023-05-21T07:26:48.393Z,23.11
2023-05-21T07:29:15.034Z,23.33
2023-05-21T07:31:41.704Z,23.48
2023-05-21T07:34:08.616Z,23.62
2023-05-21T07:36:35.256Z,23.82
2023-05-21T07:39:01.938Z,24.01
2023-05-21T07:41:28.674Z,24.10
2023-05-21T07:43:55.540Z,24.25
2023-05-21T07:46:22.218Z,24.37
2023-05-21T07:48:50.134Z,24.43
2023-05-21T07:51:17.298Z,24.47
2023-05-21T07:53:44.015Z,24.54
2023-05-21T07:56:10.995Z,24.63
2023-05-21T07:58:37.847Z,24.67
2023-05-21T08:01:04.592Z,24.75
2023-05-21T08:03:31.780Z,24.80
2023-05-21T08:05:58.428Z,24.87
2023-05-21T08:08:25.581Z,24.89
2023-05-21T08:10:52.425Z,24.89
2023-05-21T08:13:19.096Z,25.00
2023-05-21T08:15:45.841Z,25.11
2023-05-21T08:18:12.504Z,25.27
2023-05-21T08:20:39.316Z,25.34
2023-05-21T08:23:06.124Z,25.32
2023-05-21T08:25:33.176Z,25.35
2023-05-21T08:27:59.935Z,25.37
2023-05-21T08:30:26.648Z,25.44
2023-05-21T08:32:53.975Z,25.44
2023-05-21T08:35:20.863Z,25.52
2023-05-21T08:37:47.489Z,25.70
2023-05-21T08:40:14.524Z,25.83
2023-05-21T08:42:49.214Z,26.01
2023-05-21T08:45:24.395Z,26.10
2023-05-21T08:47:58.607Z,25.94
2023-05-21T08:50:28.210Z,25.99
2023-05-21T08:52:55.480Z,25.92
2023-05-21T08:55:24.467Z,25.71
2023-05-21T08:57:53.634Z,25.60
2023-05-21T09:00:25.148Z,25.49
2023-05-21T09:02:54.865Z,25.37
2023-05-21T09:05:22.753Z,25.14
2023-05-21T09:08:09.440Z,24.92
2023-05-21T09:10:39.311Z,25.01
2023-05-21T09:13:08.021Z,25.06
2023-05-21T09:15:35.074Z,25.26
2023-05-21T09:18:01.971Z,25.39
2023-05-21T09:20:28.977Z,25.55
2023-05-21T09:22:55.857Z,25.63
2023-05-21T09:25:29.489Z,25.66
2023-05-21T09:27:56.775Z,25.68
2023-05-21T09:30:26.802Z,25.71
2023-05-21T09:32:57.739Z,25.80
2023-05-21T09:35:24.767Z,25.83
2023-05-21T09:37:53.262Z,25.71
2023-05-21T09:40:24.941Z,25.62
2023-05-21T09:42:53.846Z,25.53
2023-05-21T09:45:30.625Z,25.52
2023-05-21T09:47:57.285Z,25.48
2023-05-21T09:50:31.504Z,25.43
2023-05-21T09:52:58.610Z,25.26
2023-05-21T09:55:27.029Z,25.13
2023-05-21T09:57:53.723Z,25.08
2023-05-21T10:00:27.505Z,25.11
2023-05-21T10:02:56.031Z,25.14
2023-05-21T10:05:27.737Z,25.27
2023-05-21T10:08:04.256Z,25.48
2023-05-21T10:10:32.425Z,25.75
2023-05-21T10:13:10.511Z,26.03
2023-05-21T10:15:45.921Z,26.27
2023-05-21T10:18:13.804Z,26.43
2023-05-21T10:20:41.192Z,26.54
2023-05-21T10:23:08.171Z,26.58
2023-05-21T10:25:35.193Z,26.49
2023-05-21T10:28:02.020Z,26.45
2023-05-21T10:30:29.149Z,26.40
2023-05-21T10:32:57.399Z,26.36
2023-05-21T10:35:24.626Z,26.21
2023-05-21T10:37:52.856Z,26.05
2023-05-21T10:40:24.613Z,25.86
2023-05-21T10:42:51.189Z,25.69
2023-05-21T10:45:57.885Z,25.57
2023-05-21T10:48:35.622Z,25.48
2023-05-21T10:51:33.020Z,25.40
2023-05-21T10:54:02.942Z,25.42
2023-05-21T10:56:38.922Z,25.51
2023-05-21T10:59:24.328Z,25.66
2023-05-21T11:01:56.904Z,25.81
2023-05-21T11:04:27.103Z,25.99
2023-05-21T11:06:54.276Z,26.10
2023-05-21T11:09:20.975Z,26.26
2023-05-21T11:11:59.546Z,26.45
2023-05-21T11:14:39.354Z,26.56
2023-05-21T11:17:09.893Z,26.66
2023-05-21T11:19:39.124Z,26.74
2023-05-21T11:22:20.261Z,26.87
2023-05-21T11:24:49.363Z,26.97
2023-05-21T11:27:36.037Z,27.09
2023-05-21T11:30:16.360Z,27.25
2023-05-21T11:33:12.506Z,27.31
2023-05-21T11:35:58.283Z,27.52
2023-05-21T11:38:29.786Z,27.62
2023-05-21T11:41:03.183Z,27.74
2023-05-21T11:43:29.830Z,27.80
2023-05-21T11:46:05.968Z,27.65
2023-05-21T11:48:38.009Z,27.34
2023-05-21T11:51:04.993Z,26.94
2023-05-21T11:53:31.719Z,26.66
2023-05-21T11:55:59.754Z,26.60
2023-05-21T11:58:26.589Z,26.68
2023-05-21T12:00:53.704Z,26.66
2023-05-21T12:03:26.689Z,26.63
2023-05-21T12:05:54.663Z,26.69
2023-05-21T12:08:25.484Z,26.74
2023-05-21T12:11:00.073Z,26.91
2023-05-21T12:13:27.868Z,27.04
2023-05-21T12:15:54.729Z,27.07
2023-05-21T12:18:22.479Z,27.04
2023-05-21T12:20:49.214Z,26.98
2023-05-21T12:23:34.533Z,27.13
2023-05-21T12:26:01.443Z,27.11
2023-05-21T12:28:28.278Z,27.03
2023-05-21T12:30:55.603Z,26.82
2023-05-21T12:33:24.983Z,26.66
2023-05-21T12:35:52.622Z,26.45
2023-05-21T12:38:19.566Z,26.26
2023-05-21T12:40:46.270Z,26.20
2023-05-21T12:43:13.133Z,26.09
2023-05-21T12:45:39.874Z,26.03
2023-05-21T12:48:06.952Z,26.01
2023-05-21T12:50:35.567Z,25.96
2023-05-21T12:53:02.901Z,25.85
2023-05-21T12:55:31.625Z,25.76
2023-05-21T12:58:09.078Z,25.81
2023-05-21T13:00:36.551Z,25.89
2023-05-21T13:03:06.154Z,26.04
2023-05-21T13:05:33.428Z,26.17
2023-05-21T13:08:00.149Z,26.31
2023-05-21T13:10:26.745Z,26.44
2023-05-21T13:12:53.957Z,26.61
2023-05-21T13:15:24.469Z,26.67
2023-05-21T13:17:52.435Z,26.56
2023-05-21T13:20:24.599Z,26.26
2023-05-21T13:22:52.185Z,25.98
2023-05-21T13:25:25.185Z,25.69
2023-05-21T13:27:53.365Z,25.48
2023-05-21T13:30:21.578Z,25.30
2023-05-21T13:32:48.816Z,25.10
2023-05-21T13:35:16.831Z,25.04
2023-05-21T13:37:44.521Z,25.05
2023-05-21T13:40:17.522Z,25.17
2023-05-21T13:42:45.716Z,25.36
2023-05-21T13:45:15.685Z,25.53
2023-05-21T13:47:45.465Z,25.78
2023-05-21T13:50:12.862Z,25.95
2023-05-21T13:52:39.920Z,26.02
2023-05-21T13:55:07.503Z,26.00
2023-05-21T13:57:34.315Z,25.87
2023-05-21T14:00:01.405Z,25.67
2023-05-21T14:02:28.909Z,25.44
2023-05-21T14:04:55.594Z,25.27
2023-05-21T14:07:22.546Z,25.17
2023-05-21T14:09:50.020Z,25.08
2023-05-21T14:12:17.148Z,25.02
2023-05-21T14:14:44.151Z,24.91
2023-05-21T14:17:11.268Z,24.75
2023-05-21T14:19:37.907Z,24.67
2023-05-21T14:22:04.756Z,24.57
2023-05-21T14:24:31.690Z,24.46
2023-05-21T14:26:58.362Z,24.39
2023-05-21T14:29:24.987Z,24.34
2023-05-21T14:31:52.136Z,24.27
2023-05-21T14:34:18.797Z,24.22
2023-05-21T14:36:45.421Z,24.11
2023-05-21T14:39:12.372Z,23.96
2023-05-21T14:41:39.826Z,23.84
2023-05-21T14:44:06.569Z,23.73
2023-05-21T14:46:35.686Z,23.63
2023-05-21T14:49:03.741Z,23.55
2023-05-21T14:51:31.611Z,23.53
2023-05-21T14:53:58.534Z,23.56
2023-05-21T14:56:27.653Z,23.64
2023-05-21T14:58:54.755Z,23.72
2023-05-21T15:01:21.791Z,23.84
2023-05-21T15:03:48.664Z,23.92
2023-05-21T15:06:15.354Z,24.03
2023-05-21T15:08:42.198Z,24.04
2023-05-21T15:11:09.912Z,24.07
2023-05-21T15:13:36.623Z,24.10
2023-05-21T15:16:03.551Z,24.13
2023-05-21T15:18:30.326Z,24.15
2023-05-21T15:20:57.112Z,24.12
2023-05-21T15:23:23.846Z,24.10
2023-05-21T15:25:50.608Z,24.08
2023-05-21T15:28:17.340Z,24.05
2023-05-21T15:30:44.687Z,24.01
2023-05-21T15:33:11.630Z,23.95
2023-05-21T15:35:38.618Z,23.80
2023-05-21T15:38:05.980Z,23.59
2023-05-21T15:40:32.778Z,23.39
2023-05-21T15:42:59.609Z,23.32
2023-05-21T15:45:26.481Z,23.05
2023-05-21T15:47:53.176Z,22.78
2023-05-21T15:50:19.836Z,22.64
2023-05-21T15:52:46.671Z,22.74
2023-05-21T15:55:14.348Z,22.79
2023-05-21T15:57:41.111Z,22.87
2023-05-21T16:00:09.184Z,22.91
2023-05-21T16:02:35.982Z,22.88
2023-05-21T16:05:02.826Z,22.86
2023-05-21T16:07:29.841Z,22.86
2023-05-21T16:09:56.533Z,22.86
2023-05-21T16:12:23.289Z,22.81
2023-05-21T16:14:50.168Z,22.70
2023-05-21T16:17:18.026Z,22.67
2023-05-21T16:19:44.785Z,22.64
2023-05-21T16:22:11.577Z,22.65
2023-05-21T16:24:38.198Z,22.56
2023-05-21T16:27:05.149Z,22.53
2023-05-21T16:29:32.131Z,22.47
2023-05-21T16:31:58.923Z,22.42
2023-05-21T16:34:25.686Z,22.37
2023-05-21T16:36:52.513Z,22.32
2023-05-21T16:39:19.140Z,22.24
2023-05-21T16:41:45.756Z,22.16
2023-05-21T16:44:12.766Z,22.09
2023-05-21T16:46:39.470Z,22.04
2023-05-21T16:49:06.183Z,21.98
2023-05-21T16:51:33.013Z,21.90
2023-05-21T16:53:59.826Z,21.83
2023-05-21T16:56:27.640Z,21.75
2023-05-21T16:58:54.761Z,21.63
2023-05-21T17:01:21.464Z,21.51
2023-05-21T17:03:48.188Z,21.50
2023-05-21T17:06:15.645Z,21.37
2023-05-21T17:08:42.810Z,21.25
2023-05-21T17:11:09.805Z,21.21
2023-05-21T17:13:36.495Z,21.13
2023-05-21T17:16:03.295Z,21.07
2023-05-21T17:18:31.288Z,20.99
2023-05-21T17:20:59.246Z,20.88
2023-05-21T17:23:25.958Z,20.84
2023-05-21T17:25:52.732Z,20.72
2023-05-21T17:28:19.612Z,20.62
2023-05-21T17:30:48.755Z,20.40
2023-05-21T17:33:16.422Z,20.27
2023-05-21T17:35:43.364Z,20.16
2023-05-21T17:38:10.418Z,20.06
2023-05-21T17:40:37.091Z,19.88
2023-05-21T17:43:05.251Z,19.77
2023-05-21T17:45:32.148Z,19.64
2023-05-21T17:48:00.370Z,19.51
2023-05-21T17:50:28.507Z,19.39
2023-05-21T17:52:55.233Z,19.29
2023-05-21T17:55:21.930Z,19.15
2023-05-21T17:57:48.824Z,19.06
2023-05-21T18:00:16.571Z,18.89
2023-05-21T18:02:43.390Z,18.80
2023-05-21T18:05:24.806Z,18.70
2023-05-21T18:07:51.524Z,18.65
2023-05-21T18:10:18.369Z,18.52
2023-05-21T18:12:46.544Z,18.42
2023-05-21T18:15:14.880Z,18.35
2023-05-21T18:17:41.831Z,18.29
2023-05-21T18:20:08.905Z,18.19
2023-05-21T18:22:36.824Z,18.09
2023-05-21T18:25:04.559Z,18.01
2023-05-21T18:27:31.267Z,17.88
2023-05-21T18:29:57.998Z,17.79
2023-05-21T18:32:24.646Z,17.72
2023-05-21T18:34:51.751Z,17.65
2023-05-21T18:37:18.612Z,17.57
2023-05-21T18:39:45.374Z,17.52
2023-05-21T18:42:14.126Z,17.45
2023-05-21T18:44:41.116Z,17.33
2023-05-21T18:47:08.084Z,17.36
2023-05-21T18:49:36.232Z,17.33
2023-05-21T18:52:04.105Z,17.24
2023-05-21T18:54:31.257Z,17.22
2023-05-21T18:57:00.682Z,17.14
2023-05-21T18:59:28.615Z,17.10
2023-05-21T19:01:55.573Z,16.96
2023-05-21T19:04:22.520Z,17.03
2023-05-21T19:06:49.261Z,16.95
2023-05-21T19:09:15.963Z,16.93
2023-05-21T19:11:43.144Z,16.88
2023-05-21T19:14:09.771Z,16.89
2023-05-21T19:16:36.715Z,16.85
2023-05-21T19:19:04.385Z,16.78
2023-05-21T19:21:31.495Z,16.78
2023-05-21T19:23:58.554Z,16.79
2023-05-21T19:26:25.245Z,16.72
2023-05-21T19:28:54.569Z,16.69
2023-05-21T19:31:22.461Z,16.67
2023-05-21T19:33:49.578Z,16.65
2023-05-21T19:36:16.565Z,16.60
2023-05-21T19:38:50.605Z,16.56
2023-05-21T19:41:17.897Z,16.48
2023-05-21T19:43:45.359Z,16.54
2023-05-21T19:46:12.428Z,16.53
2023-05-21T19:48:39.339Z,16.50
2023-05-21T19:51:06.080Z,16.48
2023-05-21T19:53:32.914Z,16.47
2023-05-21T19:55:59.897Z,16.43
2023-05-21T19:58:29.509Z,16.37
2023-05-21T20:00:58.569Z,16.34
2023-05-21T20:03:26.866Z,16.21
2023-05-21T20:05:53.946Z,16.17
2023-05-21T20:08:21.465Z,16.06
2023-05-21T20:10:51.326Z,15.93
2023-05-21T20:13:18.789Z,15.91
2023-05-21T20:15:45.869Z,15.80
2023-05-21T20:18:12.900Z,15.72
2023-05-21T20:20:41.182Z,15.56
2023-05-21T20:23:08.894Z,15.46
2023-05-21T20:25:35.675Z,15.32
2023-05-21T20:28:03.624Z,15.21
2023-05-21T20:30:35.021Z,15.10
2023-05-21T20:33:02.952Z,15.04
2023-05-21T20:35:30.445Z,15.00
2023-05-21T20:37:57.793Z,14.95
2023-05-21T20:40:24.791Z,14.82
2023-05-21T20:42:53.426Z,14.77
2023-05-21T20:45:21.275Z,14.69
2023-05-21T20:47:48.258Z,14.59
2023-05-21T20:50:17.541Z,14.52
2023-05-21T20:52:47.158Z,14.48
2023-05-21T20:55:14.735Z,14.41
2023-05-21T20:57:41.613Z,14.35
2023-05-21T21:00:10.779Z,14.25
2023-05-21T21:02:38.831Z,14.19
2023-05-21T21:05:06.094Z,14.14
2023-05-21T21:07:34.396Z,14.07
2023-05-21T21:10:01.591Z,14.02
2023-05-21T21:12:28.429Z,13.94
2023-05-21T21:14:55.704Z,13.94
2023-05-21T21:17:22.901Z,13.93
2023-05-21T21:19:49.633Z,13.93
2023-05-21T21:22:16.820Z,13.96
2023-05-21T21:24:43.680Z,13.94
2023-05-21T21:27:10.349Z,13.95
2023-05-21T21:29:37.343Z,14.01
2023-05-21T21:32:04.402Z,14.01
2023-05-21T21:34:31.007Z,14.06
2023-05-21T21:36:58.135Z,14.05
2023-05-21T21:39:26.256Z,14.10
2023-05-21T21:41:53.265Z,14.13
2023-05-21T21:44:20.242Z,14.16
2023-05-21T21:46:47.159Z,14.12
2023-05-21T21:49:15.711Z,14.18
2023-05-21T21:51:44.506Z,14.19
2023-05-21T21:54:11.817Z,14.25
2023-05-21T21:56:38.529Z,14.29
2023-05-21T21:59:05.399Z,14.35
2023-05-21T22:01:32.299Z,14.39
2023-05-21T22:03:59.272Z,14.36
2023-05-21T22:06:27.704Z,14.33
2023-05-21T22:08:54.685Z,14.37
2023-05-21T22:11:22.009Z,14.35
2023-05-21T22:13:48.923Z,14.29
2023-05-21T22:16:15.905Z,14.25
2023-05-21T22:18:42.578Z,14.18
2023-05-21T22:21:10.600Z,14.14
2023-05-21T22:23:38.183Z,14.08
2023-05-21T22:26:05.038Z,14.06
2023-05-21T22:28:31.909Z,13.98
2023-05-21T22:30:59.190Z,13.92
2023-05-21T22:33:26.920Z,13.86
2023-05-21T22:35:54.637Z,13.76
2023-05-21T22:38:21.492Z,13.72
2023-05-21T22:40:48.365Z,13.65
2023-05-21T22:43:15.437Z,13.58
2023-05-21T22:45:42.269Z,13.52
2023-05-21T22:48:09.438Z,13.39
2023-05-21T22:50:38.433Z,13.32
2023-05-21T22:53:06.015Z,13.21
2023-05-21T22:55:32.698Z,13.15
2023-05-21T22:57:59.600Z,13.06
2023-05-21T23:00:27.259Z,13.03
2023-05-21T23:02:54.842Z,12.99
2023-05-21T23:05:22.147Z,12.91
2023-05-21T23:07:49.002Z,12.85
2023-05-21T23:10:15.946Z,12.76
2023-05-21T23:12:42.867Z,12.68
2023-05-21T23:15:10.752Z,12.62
2023-05-21T23:17:38.273Z,12.57
2023-05-21T23:20:09.191Z,12.51
2023-05-21T23:22:36.875Z,12.46
2023-05-21T23:25:04.046Z,12.36
2023-05-21T23:27:30.966Z,12.35
2023-05-21T23:29:57.536Z,12.30
2023-05-21T23:32:24.308Z,12.19
2023-05-21T23:34:51.459Z,12.20
2023-05-21T23:37:18.981Z,12.15
2023-05-21T23:39:49.346Z,12.09
2023-05-21T23:42:17.115Z,12.02
2023-05-21T23:44:44.129Z,12.06
2023-05-21T23:47:10.796Z,12.07
2023-05-21T23:49:37.821Z,12.07
2023-05-21T23:52:05.133Z,12.05
2023-05-21T23:54:31.802Z,12.03
2023-05-21T23:56:58.964Z,12.02
2023-05-21T23:59:25.584Z,11.98
